Sammy Cenac — WDH7565 — position and weather

sailwx.info

Track history (hours):
 
Tides and Currents Weather Stations Pressure Air Temp Water Temp Dewpoint Dewpoint Depression Visibility Wind Speed Wind Dir Waves Ship Positions

Sammy Cenac

Owner: Cenac Marine Services, Houma, LA. More information available from US FCC via Universal Licensing System and Coast Guard Vessel Documentation Center.

Last reported at 2018-May-12 17:37 UTC. Time now 2018-Jun-20 05:31 UTC.
Position N 29°33' W 090°26'.
Warning: this ship's position is 38 days out of date.

Length 22 m; draft 3 m.

Type: Tug. MMSI: 367649360.

Date/timePositionNaut miles runAvg speedWind from/ knotsBaromVisibWave heightAir tempDewpointWater temp
2018-May-12 17:37N 29°33' W 090°26'1 4.2
2018-May-12 17:18N 29°33' W 090°28'2 5.3
2018-May-12 17:00N 29°34' W 090°30'3 5.7
2018-May-12 16:30N 29°34' W 090°33'3 5.3
2018-May-12 16:00N 29°35' W 090°36'2 4.5
2018-May-12 15:30N 29°35' W 090°38'2 4.8
2018-May-12 15:00N 29°36' W 090°41'2 3.2
2018-May-12 14:30N 29°36' W 090°43'2 4.1
2018-May-12 14:00N 29°34' W 090°43'2 3.1
2018-May-12 13:30N 29°34' W 090°45'2 4.7
2018-May-12 13:00N 29°32' W 090°47'5 6.5
2018-May-12 12:15N 29°32' W 090°53'114 4.2
2018-May-11 09:15N 29°56' W 093°01'1 4.3
2018-May-11 08:59N 29°56' W 093°02'2 4.3
2018-May-11 08:30N 29°56' W 093°05'2 3.4
2018-May-11 08:00N 29°56' W 093°07'2 3.7
2018-May-11 07:30N 29°56' W 093°09'2 3.7
2018-May-11 07:00N 29°57' W 093°11'2 3.9
2018-May-11 06:30N 29°59' W 093°12'2 4.1
2018-May-11 06:00N 30°00' W 093°14'2 3.7
2018-May-11 05:31N 30°02' W 093°15'0 0.7
2018-May-11 05:00N 30°02' W 093°15'0 0.2
2018-May-11 04:30N 30°02' W 093°15'2 3.4
2018-May-11 04:00N 30°04' W 093°16'2 3.7
2018-May-11 03:30N 30°05' W 093°17'1 1.3
2018-May-11 03:00N 30°05' W 093°18'1 1.4
2018-May-11 02:30N 30°06' W 093°18'0 0.1
2018-May-11 02:01N 30°06' W 093°18'0 0.2
2018-May-11 01:30N 30°06' W 093°18'0 0.7
2018-May-11 01:00N 30°06' W 093°19'0 0.6
2018-May-11 00:30N 30°06' W 093°19'0 0.1
2018-May-11 00:01N 30°06' W 093°19'0 0.0
2018-May-10 23:30N 30°06' W 093°19'0 0.0
2018-May-10 23:00N 30°06' W 093°19'0 0.0
2018-May-10 22:30N 30°06' W 093°19'0 0.0
2018-May-10 22:00N 30°06' W 093°19'0 0.0
2018-May-10 21:29N 30°06' W 093°19'0 0.0
2018-May-10 21:00N 30°06' W 093°19'0 0.0
2018-May-10 20:31N 30°06' W 093°19'0 0.0
2018-May-10 20:00N 30°06' W 093°19'0 0.0
2018-May-10 19:31N 30°06' W 093°19'0 0.0
2018-May-10 19:00N 30°06' W 093°19'0 0.0
2018-May-10 18:30N 30°06' W 093°19'1 1.6
2018-May-10 18:00N 30°06' W 093°19'1 2.8
2018-May-10 17:30N 30°07' W 093°20'1 2.2
2018-May-10 16:59N 30°08' W 093°20'0 0.2
2018-May-10 16:29N 30°08' W 093°20'1 1.3
2018-May-10 16:00N 30°08' W 093°19'0 0.0
2018-May-10 15:30N 30°08' W 093°19'0 0.0
2018-May-10 15:00N 30°08' W 093°19'0 0.0
2018-May-10 14:30N 30°08' W 093°19'0 0.0
2018-May-10 14:00N 30°08' W 093°19'0 0.0
2018-May-10 13:30N 30°08' W 093°19'0 0.0
2018-May-10 13:00N 30°08' W 093°19'0 0.0
2018-May-10 12:30N 30°08' W 093°19'0 0.0
2018-May-10 12:00N 30°08' W 093°19'0 0.0
2018-May-10 11:30N 30°08' W 093°19'0 0.0
2018-May-10 11:00N 30°08' W 093°19'0 0.0
2018-May-10 10:30N 30°08' W 093°19'0 0.0
2018-May-10 10:00N 30°08' W 093°19'0 0.0
2018-May-10 09:30N 30°08' W 093°19'0 0.0
2018-May-10 09:00N 30°08' W 093°19'0 0.0
2018-May-10 08:30N 30°08' W 093°19'0 0.0
2018-May-10 08:00N 30°08' W 093°19'0 0.0
2018-May-10 07:30N 30°08' W 093°19'0 0.0
2018-May-10 07:00N 30°08' W 093°19'0 0.0
2018-May-10 06:30N 30°08' W 093°19'0 0.0
2018-May-10 06:00N 30°08' W 093°19'0 0.0
2018-May-10 05:30N 30°08' W 093°19'0 0.0
2018-May-10 05:00N 30°08' W 093°19'0 0.0
2018-May-10 04:30N 30°08' W 093°19'0 0.0
2018-May-10 04:00N 30°08' W 093°19'0 0.7
2018-May-10 03:30N 30°08' W 093°20'2 4.9
2018-May-10 03:00N 30°06' W 093°19'1 1.4
2018-May-10 02:30N 30°06' W 093°19'1 2.2
2018-May-10 02:00N 30°05' W 093°18'0 1.0
2018-May-10 01:30N 30°05' W 093°17'1 2.2
2018-May-10 01:00N 30°04' W 093°16'2 4.2
2018-May-10 00:30N 30°02' W 093°16'2 3.8
2018-May-10 00:00N 30°01' W 093°14'2 4.5
2018-May-09 23:30N 29°59' W 093°13'1 2.5
2018-May-09 23:00N 29°58' W 093°12'3 6.5
2018-May-09 22:30N 29°56' W 093°09'3 6.4
2018-May-09 22:00N 29°56' W 093°05'38 5.6
2018-May-09 15:08N 29°51' W 092°22'1 6.5
2018-May-09 14:56N 29°51' W 092°20'2 4.8
2018-May-09 14:30N 29°50' W 092°18'3 5.2
2018-May-09 14:00N 29°48' W 092°15'2 5.0
2018-May-09 13:30N 29°47' W 092°13'1 1.5
2018-May-09 13:00N 29°47' W 092°12'1 1.3
2018-May-09 12:30N 29°47' W 092°11'1 1.1
2018-May-09 12:00N 29°47' W 092°11'0 0.1
2018-May-09 11:30N 29°47' W 092°11'0 0.0
2018-May-09 11:00N 29°47' W 092°11'0 0.0
2018-May-09 10:30N 29°47' W 092°11'0 0.0
2018-May-09 10:00N 29°47' W 092°11'0 0.0
2018-May-09 09:30N 29°47' W 092°11'0 0.0
2018-May-09 09:00N 29°47' W 092°11'0 0.0
2018-May-09 08:30N 29°47' W 092°11'0 0.0
2018-May-09 08:00N 29°47' W 092°11'0 0.0
2018-May-09 07:30N 29°47' W 092°11'0 0.9
2018-May-09 07:00N 29°47' W 092°10'2 3.8
2018-May-09 06:30N 29°47' W 092°08'2 2.9
2018-May-09 05:57N 29°48' W 092°06'0 1.0
2018-May-09 05:30N 29°48' W 092°06'2 5.0
2018-May-09 05:00N 29°49' W 092°03'3 7.0
2018-May-09 04:30N 29°50' W 091°60'3 6.9
2018-May-09 04:00N 29°51' W 091°56'4 7.0
2018-May-09 03:24N 29°51' W 091°51'55 4.8
2018-May-08 16:06N 29°32' W 090°52'1 7.0
2018-May-08 15:57N 29°32' W 090°50'3 6.8
2018-May-08 15:29N 29°32' W 090°47'3 5.6
2018-May-08 15:00N 29°34' W 090°44'2 4.3
2018-May-08 14:30N 29°35' W 090°43'2 3.2
2018-May-08 14:00N 29°37' W 090°42'0 0.8
2018-May-08 13:30N 29°37' W 090°43'0 0.0
2018-May-08 13:00N 29°37' W 090°43'0 0.7
2018-May-08 12:31N 29°37' W 090°42'1 1.6
2018-May-08 12:00N 29°37' W 090°41'2 3.6
2018-May-08 11:30N 29°36' W 090°39'2 5.0
2018-May-08 11:00N 29°35' W 090°37'1 2.7
2018-May-08 10:30N 29°35' W 090°35'2 4.4
2018-May-08 10:00N 29°34' W 090°33'2 4.6
2018-May-08 09:30N 29°34' W 090°30'2 4.5
2018-May-08 08:58N 29°33' W 090°28'2 3.8
2018-May-08 08:30N 29°33' W 090°26'2 3.8
2018-May-08 08:00N 29°33' W 090°23'2 4.1
2018-May-08 07:30N 29°35' W 090°22'2 3.4
2018-May-08 07:00N 29°37' W 090°21'2 4.2
2018-May-08 06:30N 29°38' W 090°20'  
Track history (hours):
 
Tides and Currents Weather Stations Pressure Air Temp Water Temp Dewpoint Dewpoint Depression Visibility Wind Speed Wind Dir Waves Ship Positions

Sammy Cenac

Owner: Cenac Marine Services, Houma, LA. More information available from US FCC via Universal Licensing System and Coast Guard Vessel Documentation Center.

Last reported at 2018-May-12 17:37 UTC. Time now 2018-Jun-20 05:31 UTC.
Position N 29°33' W 090°26'.
Warning: this ship's position is 38 days out of date.

Length 22 m; draft 3 m.

Type: Tug. MMSI: 367649360.

Date/timePositionNaut miles runAvg speedWind from/ knotsBaromVisibWave heightAir tempDewpointWater temp
2018-May-12 17:37N 29°33' W 090°26'1 4.2
2018-May-12 17:18N 29°33' W 090°28'2 5.3
2018-May-12 17:00N 29°34' W 090°30'3 5.7
2018-May-12 16:30N 29°34' W 090°33'3 5.3
2018-May-12 16:00N 29°35' W 090°36'2 4.5
2018-May-12 15:30N 29°35' W 090°38'2 4.8
2018-May-12 15:00N 29°36' W 090°41'2 3.2
2018-May-12 14:30N 29°36' W 090°43'2 4.1
2018-May-12 14:00N 29°34' W 090°43'2 3.1
2018-May-12 13:30N 29°34' W 090°45'2 4.7
2018-May-12 13:00N 29°32' W 090°47'5 6.5
2018-May-12 12:15N 29°32' W 090°53'114 4.2
2018-May-11 09:15N 29°56' W 093°01'1 4.3
2018-May-11 08:59N 29°56' W 093°02'2 4.3
2018-May-11 08:30N 29°56' W 093°05'2 3.4
2018-May-11 08:00N 29°56' W 093°07'2 3.7
2018-May-11 07:30N 29°56' W 093°09'2 3.7
2018-May-11 07:00N 29°57' W 093°11'2 3.9
2018-May-11 06:30N 29°59' W 093°12'2 4.1
2018-May-11 06:00N 30°00' W 093°14'2 3.7
2018-May-11 05:31N 30°02' W 093°15'0 0.7
2018-May-11 05:00N 30°02' W 093°15'0 0.2
2018-May-11 04:30N 30°02' W 093°15'2 3.4
2018-May-11 04:00N 30°04' W 093°16'2 3.7
2018-May-11 03:30N 30°05' W 093°17'1 1.3
2018-May-11 03:00N 30°05' W 093°18'1 1.4
2018-May-11 02:30N 30°06' W 093°18'0 0.1
2018-May-11 02:01N 30°06' W 093°18'0 0.2
2018-May-11 01:30N 30°06' W 093°18'0 0.7
2018-May-11 01:00N 30°06' W 093°19'0 0.6
2018-May-11 00:30N 30°06' W 093°19'0 0.1
2018-May-11 00:01N 30°06' W 093°19'0 0.0
2018-May-10 23:30N 30°06' W 093°19'0 0.0
2018-May-10 23:00N 30°06' W 093°19'0 0.0
2018-May-10 22:30N 30°06' W 093°19'0 0.0
2018-May-10 22:00N 30°06' W 093°19'0 0.0
2018-May-10 21:29N 30°06' W 093°19'0 0.0
2018-May-10 21:00N 30°06' W 093°19'0 0.0
2018-May-10 20:31N 30°06' W 093°19'0 0.0
2018-May-10 20:00N 30°06' W 093°19'0 0.0
2018-May-10 19:31N 30°06' W 093°19'0 0.0
2018-May-10 19:00N 30°06' W 093°19'0 0.0
2018-May-10 18:30N 30°06' W 093°19'1 1.6
2018-May-10 18:00N 30°06' W 093°19'1 2.8
2018-May-10 17:30N 30°07' W 093°20'1 2.2
2018-May-10 16:59N 30°08' W 093°20'0 0.2
2018-May-10 16:29N 30°08' W 093°20'1 1.3
2018-May-10 16:00N 30°08' W 093°19'0 0.0
2018-May-10 15:30N 30°08' W 093°19'0 0.0
2018-May-10 15:00N 30°08' W 093°19'0 0.0
2018-May-10 14:30N 30°08' W 093°19'0 0.0
2018-May-10 14:00N 30°08' W 093°19'0 0.0
2018-May-10 13:30N 30°08' W 093°19'0 0.0
2018-May-10 13:00N 30°08' W 093°19'0 0.0
2018-May-10 12:30N 30°08' W 093°19'0 0.0
2018-May-10 12:00N 30°08' W 093°19'0 0.0
2018-May-10 11:30N 30°08' W 093°19'0 0.0
2018-May-10 11:00N 30°08' W 093°19'0 0.0
2018-May-10 10:30N 30°08' W 093°19'0 0.0
2018-May-10 10:00N 30°08' W 093°19'0 0.0
2018-May-10 09:30N 30°08' W 093°19'0 0.0
2018-May-10 09:00N 30°08' W 093°19'0 0.0
2018-May-10 08:30N 30°08' W 093°19'0 0.0
2018-May-10 08:00N 30°08' W 093°19'0 0.0
2018-May-10 07:30N 30°08' W 093°19'0 0.0
2018-May-10 07:00N 30°08' W 093°19'0 0.0
2018-May-10 06:30N 30°08' W 093°19'0 0.0
2018-May-10 06:00N 30°08' W 093°19'0 0.0
2018-May-10 05:30N 30°08' W 093°19'0 0.0
2018-May-10 05:00N 30°08' W 093°19'0 0.0
2018-May-10 04:30N 30°08' W 093°19'0 0.0
2018-May-10 04:00N 30°08' W 093°19'0 0.7
2018-May-10 03:30N 30°08' W 093°20'2 4.9
2018-May-10 03:00N 30°06' W 093°19'1 1.4
2018-May-10 02:30N 30°06' W 093°19'1 2.2
2018-May-10 02:00N 30°05' W 093°18'0 1.0
2018-May-10 01:30N 30°05' W 093°17'1 2.2
2018-May-10 01:00N 30°04' W 093°16'2 4.2
2018-May-10 00:30N 30°02' W 093°16'2 3.8
2018-May-10 00:00N 30°01' W 093°14'2 4.5
2018-May-09 23:30N 29°59' W 093°13'1 2.5
2018-May-09 23:00N 29°58' W 093°12'3 6.5
2018-May-09 22:30N 29°56' W 093°09'3 6.4
2018-May-09 22:00N 29°56' W 093°05'38 5.6
2018-May-09 15:08N 29°51' W 092°22'1 6.5
2018-May-09 14:56N 29°51' W 092°20'2 4.8
2018-May-09 14:30N 29°50' W 092°18'3 5.2
2018-May-09 14:00N 29°48' W 092°15'2 5.0
2018-May-09 13:30N 29°47' W 092°13'1 1.5
2018-May-09 13:00N 29°47' W 092°12'1 1.3
2018-May-09 12:30N 29°47' W 092°11'1 1.1
2018-May-09 12:00N 29°47' W 092°11'0 0.1
2018-May-09 11:30N 29°47' W 092°11'0 0.0
2018-May-09 11:00N 29°47' W 092°11'0 0.0
2018-May-09 10:30N 29°47' W 092°11'0 0.0
2018-May-09 10:00N 29°47' W 092°11'0 0.0
2018-May-09 09:30N 29°47' W 092°11'0 0.0
2018-May-09 09:00N 29°47' W 092°11'0 0.0
2018-May-09 08:30N 29°47' W 092°11'0 0.0
2018-May-09 08:00N 29°47' W 092°11'0 0.0
2018-May-09 07:30N 29°47' W 092°11'0 0.9
2018-May-09 07:00N 29°47' W 092°10'2 3.8
2018-May-09 06:30N 29°47' W 092°08'2 2.9
2018-May-09 05:57N 29°48' W 092°06'0 1.0
2018-May-09 05:30N 29°48' W 092°06'2 5.0
2018-May-09 05:00N 29°49' W 092°03'3 7.0
2018-May-09 04:30N 29°50' W 091°60'3 6.9
2018-May-09 04:00N 29°51' W 091°56'4 7.0
2018-May-09 03:24N 29°51' W 091°51'55 4.8
2018-May-08 16:06N 29°32' W 090°52'1 7.0
2018-May-08 15:57N 29°32' W 090°50'3 6.8
2018-May-08 15:29N 29°32' W 090°47'3 5.6
2018-May-08 15:00N 29°34' W 090°44'2 4.3
2018-May-08 14:30N 29°35' W 090°43'2 3.2
2018-May-08 14:00N 29°37' W 090°42'0 0.8
2018-May-08 13:30N 29°37' W 090°43'0 0.0
2018-May-08 13:00N 29°37' W 090°43'0 0.7
2018-May-08 12:31N 29°37' W 090°42'1 1.6
2018-May-08 12:00N 29°37' W 090°41'2 3.6
2018-May-08 11:30N 29°36' W 090°39'2 5.0
2018-May-08 11:00N 29°35' W 090°37'1 2.7
2018-May-08 10:30N 29°35' W 090°35'2 4.4
2018-May-08 10:00N 29°34' W 090°33'2 4.6
2018-May-08 09:30N 29°34' W 090°30'2 4.5
2018-May-08 08:58N 29°33' W 090°28'2 3.8
2018-May-08 08:30N 29°33' W 090°26'2 3.8
2018-May-08 08:00N 29°33' W 090°23'2 4.1
2018-May-08 07:30N 29°35' W 090°22'2 3.4
2018-May-08 07:00N 29°37' W 090°21'2 4.2
2018-May-08 06:30N 29°38' W 090°20'  

Dump ship's entire track history